Time;durP1;ratioP1;P1;durP2;ratioP2;P2;SDS_P1;SDS_P2;PMS_P1;PMS_P2;Temp;Humidity;BMP_temperature;BMP_pressure;BME280_temperature;BME280_humidity;BME280_pressure;Samples;Min_cycle;Max_cycle;Signal;HPM_P1;HPM_P2
2022/06/28 00:00:19;;;;;;;4.30;2.47;;;14.70;84.80;;;;;;5114980;28;20027;-69
2022/06/28 00:02:44;;;;;;;6.82;3.85;;;14.70;84.90;;;;;;5113737;28;20320;-69
2022/06/28 00:05:11;;;;;;;5.55;3.08;;;14.60;85.10;;;;;;5112889;28;20030;-69
2022/06/28 00:07:37;;;;;;;6.35;3.63;;;14.60;84.90;;;;;;5113938;28;20440;-69
2022/06/28 00:10:07;;;;;;;5.70;2.95;;;14.60;85.00;;;;;;5114624;28;20047;-69
2022/06/28 00:12:33;;;;;;;5.10;3.00;;;14.60;84.20;;;;;;5114998;28;20030;-69
2022/06/28 00:17:44;;;;;;;5.63;3.00;;;14.60;85.00;;;;;;5111804;28;20027;-69
2022/06/28 00:20:10;;;;;;;6.25;3.25;;;14.50;84.90;;;;;;5115618;28;20034;-69
2022/06/28 00:22:36;;;;;;;6.68;3.55;;;14.60;84.30;;;;;;5114731;28;20020;-69
2022/06/28 00:25:02;;;;;;;7.22;2.83;;;14.60;84.40;;;;;;5115221;28;20031;-69
2022/06/28 00:27:27;;;;;;;5.93;3.25;;;14.60;84.20;;;;;;5113497;28;20039;-69
2022/06/28 00:29:53;;;;;;;4.82;3.25;;;14.60;84.40;;;;;;5115107;28;20020;-69
2022/06/28 00:32:22;;;;;;;5.05;3.17;;;14.60;84.60;;;;;;5112464;28;20032;-68
2022/06/28 00:34:47;;;;;;;5.55;2.67;;;14.50;85.00;;;;;;5114744;28;20027;-69
2022/06/28 00:37:16;;;;;;;8.23;3.53;;;14.40;85.00;;;;;;5112821;28;20046;-69
2022/06/28 00:39:42;;;;;;;5.72;3.47;;;14.40;85.10;;;;;;5114218;28;20055;-69
2022/06/28 00:42:09;;;;;;;3.75;2.47;;;14.30;85.00;;;;;;5110763;28;20393;-69
2022/06/28 00:44:36;;;;;;;8.23;3.47;;;14.30;84.60;;;;;;5112924;28;20382;-69
2022/06/28 00:47:04;;;;;;;4.78;3.28;;;14.20;84.30;;;;;;5115306;28;20077;-69
2022/06/28 00:49:30;;;;;;;5.13;3.17;;;14.30;83.70;;;;;;5111283;28;20024;-69
2022/06/28 00:51:58;;;;;;;5.80;3.13;;;14.30;83.60;;;;;;5114645;28;20053;-69
2022/06/28 00:54:25;;;;;;;6.72;3.22;;;14.30;83.50;;;;;;5101845;28;20034;-69
2022/06/28 00:56:51;;;;;;;5.72;3.78;;;14.30;83.60;;;;;;5115809;28;20404;-69
2022/06/28 00:59:17;;;;;;;4.80;2.63;;;14.30;83.40;;;;;;5114219;28;20032;-69
2022/06/28 01:01:43;;;;;;;7.53;2.90;;;14.30;83.50;;;;;;5115163;28;20036;-68
2022/06/28 01:04:08;;;;;;;7.32;3.42;;;14.20;83.60;;;;;;5113248;28;20032;-67
2022/06/28 01:06:37;;;;;;;8.65;3.45;;;14.20;83.60;;;;;;5109252;28;20416;-68
2022/06/28 01:09:03;;;;;;;8.80;4.10;;;14.20;83.50;;;;;;5113197;28;20020;-68
2022/06/28 01:11:29;;;;;;;6.72;3.50;;;14.20;83.30;;;;;;5105676;28;20404;-69
2022/06/28 01:13:59;;;;;;;6.25;2.92;;;14.20;82.90;;;;;;5115570;28;20046;-69
2022/06/28 01:16:24;;;;;;;6.93;3.55;;;14.20;82.90;;;;;;5114689;28;20030;-69
2022/06/28 01:18:50;;;;;;;4.35;2.90;;;14.20;82.90;;;;;;5111831;28;20023;-68
2022/06/28 01:21:17;;;;;;;5.68;2.45;;;14.20;82.50;;;;;;5123978;28;20027;-69
2022/06/28 01:23:47;;;;;;;4.53;2.50;;;14.20;82.60;;;;;;5113805;28;20034;-69
2022/06/28 01:26:15;;;;;;;4.50;2.67;;;14.20;82.60;;;;;;5113631;28;20032;-69
2022/06/28 01:28:42;;;;;;;4.65;2.85;;;14.20;82.80;;;;;;5111188;28;20028;-69
2022/06/28 01:31:08;;;;;;;5.32;2.83;;;14.20;82.90;;;;;;5114869;28;20024;-69
2022/06/28 01:33:36;;;;;;;5.78;3.65;;;14.20;83.10;;;;;;5112085;28;20325;-68
2022/06/28 01:36:04;;;;;;;5.28;3.72;;;14.20;83.10;;;;;;5115148;28;20028;-69
2022/06/28 01:38:30;;;;;;;6.90;3.63;;;14.20;82.90;;;;;;5107113;28;20019;-69
2022/06/28 01:40:56;;;;;;;8.00;3.30;;;14.20;82.70;;;;;;5119603;28;20474;-69
2022/06/28 01:43:22;;;;;;;6.57;3.35;;;14.20;82.30;;;;;;5116315;28;20051;-68
2022/06/28 01:45:52;;;;;;;5.38;3.00;;;14.20;82.50;;;;;;5122158;27;20028;-69
2022/06/28 01:48:19;;;;;;;4.70;2.92;;;14.20;82.70;;;;;;5116342;28;20059;-69
2022/06/28 01:50:46;;;;;;;6.45;2.70;;;14.20;82.90;;;;;;5116284;27;20035;-69
2022/06/28 01:53:12;;;;;;;4.53;2.50;;;14.20;83.20;;;;;;5115844;27;20130;-69
2022/06/28 01:55:38;;;;;;;4.35;2.88;;;14.10;83.60;;;;;;5107401;28;20107;-69
2022/06/28 01:58:04;;;;;;;4.63;2.92;;;14.10;83.60;;;;;;5119513;27;20028;-68
2022/06/28 02:00:30;;;;;;;4.80;2.88;;;14.10;83.80;;;;;;5121106;27;20114;-68
2022/06/28 02:02:56;;;;;;;7.30;3.22;;;14.10;84.30;;;;;;5116223;28;20098;-69
2022/06/28 02:05:22;;;;;;;3.90;2.53;;;14.00;84.30;;;;;;5116612;28;20020;-69
2022/06/28 02:07:51;;;;;;;3.97;2.58;;;14.00;84.10;;;;;;5117425;28;20069;-69
2022/06/28 02:10:20;;;;;;;5.20;2.70;;;14.00;83.90;;;;;;5125156;27;20477;-69
2022/06/28 02:12:45;;;;;;;4.88;2.35;;;14.00;84.00;;;;;;5126633;27;20072;-69
2022/06/28 02:15:12;;;;;;;6.32;2.78;;;14.00;84.00;;;;;;5128355;27;20027;-69
2022/06/28 02:17:38;;;;;;;4.07;2.53;;;14.00;83.90;;;;;;5129164;27;20035;-69
2022/06/28 02:20:04;;;;;;;7.28;3.28;;;13.90;84.40;;;;;;5114755;27;20388;-69
2022/06/28 02:22:30;;;;;;;5.60;3.45;;;13.90;83.90;;;;;;5122037;27;20035;-68
2022/06/28 02:24:56;;;;;;;7.30;3.03;;;13.90;84.00;;;;;;5122931;27;20080;-68
2022/06/28 02:27:22;;;;;;;4.70;2.95;;;13.90;84.20;;;;;;5116850;28;20157;-69
2022/06/28 02:29:47;;;;;;;6.43;3.13;;;13.80;83.90;;;;;;5116814;28;20023;-69
2022/06/28 02:32:13;;;;;;;5.90;3.28;;;13.80;83.70;;;;;;5125022;27;20388;-69
2022/06/28 02:40:24;;;;;;;4.57;2.85;;;13.90;83.30;;;;;;5117296;27;20097;-68
2022/06/28 02:43:00;;;;;;;6.72;3.25;;;13.80;82.90;;;;;;5121457;27;20315;-68
2022/06/28 02:45:32;;;;;;;5.18;3.20;;;13.90;83.00;;;;;;5117516;28;20027;-70
2022/06/28 02:47:58;;;;;;;5.82;3.20;;;13.90;83.10;;;;;;5115942;27;20051;-69
2022/06/28 02:50:24;;;;;;;7.18;3.13;;;13.90;83.20;;;;;;5112282;28;20375;-69
2022/06/28 02:52:50;;;;;;;5.80;3.45;;;13.80;83.70;;;;;;5117691;27;20022;-67
2022/06/28 02:55:16;;;;;;;7.25;2.85;;;13.80;83.80;;;;;;5122846;27;20050;-68
2022/06/28 02:57:42;;;;;;;5.10;3.08;;;13.70;84.00;;;;;;5120250;27;20024;-69
2022/06/28 03:00:13;;;;;;;6.05;3.00;;;13.60;84.40;;;;;;5119280;27;20416;-69
2022/06/28 03:02:40;;;;;;;5.40;3.40;;;13.60;83.90;;;;;;5124898;27;20062;-68
2022/06/28 03:05:08;;;;;;;5.97;2.90;;;13.60;83.60;;;;;;5114410;27;20080;-69
2022/06/28 03:07:34;;;;;;;5.45;2.90;;;13.60;83.40;;;;;;5122655;27;20031;-69
2022/06/28 03:10:02;;;;;;;8.25;3.47;;;13.60;83.10;;;;;;5115681;27;20035;-68
2022/06/28 03:12:28;;;;;;;6.68;3.45;;;13.60;83.50;;;;;;5125649;27;20126;-69
2022/06/28 03:14:54;;;;;;;4.70;3.22;;;13.50;84.00;;;;;;5120744;27;20103;-69
2022/06/28 03:17:20;;;;;;;5.28;3.30;;;13.50;83.60;;;;;;5114934;28;20497;-69
2022/06/28 03:19:45;;;;;;;5.95;3.97;;;13.50;83.80;;;;;;5116174;27;20024;-69
2022/06/28 03:22:11;;;;;;;6.70;3.67;;;13.40;83.50;;;;;;5126325;27;20055;-69
2022/06/28 03:24:37;;;;;;;5.03;2.92;;;13.40;83.00;;;;;;5118950;27;20016;-69
2022/06/28 03:27:03;;;;;;;5.65;3.47;;;13.40;83.00;;;;;;5116071;27;20037;-68
2022/06/28 03:29:28;;;;;;;6.50;2.90;;;13.40;82.60;;;;;;5121897;27;20108;-69
2022/06/28 03:31:54;;;;;;;6.45;3.38;;;13.50;82.30;;;;;;5121406;27;20324;-69
2022/06/28 03:34:20;;;;;;;8.98;4.22;;;13.50;82.30;;;;;;5116010;27;20035;-68
2022/06/28 03:36:47;;;;;;;5.53;3.22;;;13.50;82.30;;;;;;5119628;27;20087;-69
2022/06/28 03:39:13;;;;;;;10.15;3.75;;;13.50;82.00;;;;;;5122279;27;20026;-68
2022/06/28 03:41:39;;;;;;;6.15;3.90;;;13.60;81.80;;;;;;5121607;27;20019;-69
2022/06/28 03:44:05;;;;;;;6.72;4.03;;;13.60;81.70;;;;;;5117387;27;20428;-68
2022/06/28 03:46:31;;;;;;;6.60;3.28;;;13.70;81.90;;;;;;5121233;27;20058;-69
2022/06/28 03:48:56;;;;;;;5.07;3.40;;;13.70;81.90;;;;;;5118178;27;20047;-69
2022/06/28 03:51:22;;;;;;;4.65;3.03;;;13.70;82.00;;;;;;5121238;27;20023;-69
2022/06/28 03:53:48;;;;;;;9.40;3.95;;;13.80;82.20;;;;;;5120420;27;20401;-69
2022/06/28 03:56:13;;;;;;;7.60;3.92;;;13.80;82.00;;;;;;5119431;27;20024;-69
2022/06/28 03:58:39;;;;;;;5.53;3.42;;;13.80;82.10;;;;;;5115104;28;20020;-69
2022/06/28 04:01:07;;;;;;;6.80;3.00;;;13.80;82.60;;;;;;5117593;27;20015;-68
2022/06/28 04:03:34;;;;;;;5.10;3.53;;;13.80;82.60;;;;;;5112808;28;20122;-69
2022/06/28 04:05:59;;;;;;;7.25;2.47;;;13.80;82.60;;;;;;5114432;28;20020;-69
2022/06/28 04:08:25;;;;;;;6.45;2.97;;;13.80;82.40;;;;;;5115937;27;20043;-69
2022/06/28 04:11:13;;;;;;;6.22;2.83;;;13.80;82.30;;;;;;5112758;28;20055;-69
2022/06/28 04:13:38;;;;;;;6.50;3.55;;;13.90;82.60;;;;;;5121995;27;20028;-69
2022/06/28 04:16:04;;;;;;;5.65;3.60;;;13.90;82.60;;;;;;5112006;28;20469;-69
2022/06/28 04:18:31;;;;;;;6.93;3.38;;;13.90;83.00;;;;;;5110472;27;20102;-68
2022/06/28 04:20:57;;;;;;;5.88;3.03;;;13.90;82.80;;;;;;5116691;27;20023;-69
2022/06/28 04:23:23;;;;;;;6.05;2.65;;;14.00;82.50;;;;;;5112903;28;20066;-69
2022/06/28 04:25:49;;;;;;;6.07;2.95;;;14.10;82.30;;;;;;5112894;28;20443;-69
2022/06/28 04:28:15;;;;;;;5.05;3.03;;;14.20;83.20;;;;;;5115803;28;20106;-69
2022/06/28 04:30:40;;;;;;;7.35;3.35;;;14.20;83.80;;;;;;5112702;28;20059;-69
2022/06/28 04:33:06;;;;;;;6.22;3.03;;;14.20;83.80;;;;;;5109969;27;20035;-69
2022/06/28 04:35:32;;;;;;;6.72;3.08;;;14.40;83.50;;;;;;5110729;28;20413;-69
2022/06/28 04:37:58;;;;;;;3.88;2.47;;;14.40;83.70;;;;;;5118147;27;20032;-69
2022/06/28 04:40:24;;;;;;;4.68;2.45;;;14.60;83.70;;;;;;5113348;28;20020;-69
2022/06/28 04:42:50;;;;;;;4.00;2.67;;;14.60;84.30;;;;;;5112027;28;20420;-68
2022/06/28 04:45:15;;;;;;;5.80;2.58;;;14.50;85.90;;;;;;5121290;28;20292;-69
2022/06/28 04:47:42;;;;;;;7.35;2.95;;;14.40;86.00;;;;;;5123422;28;20176;-69
2022/06/28 04:50:08;;;;;;;3.83;2.67;;;14.40;85.70;;;;;;5115951;28;20028;-69
2022/06/28 04:52:34;;;;;;;7.18;2.58;;;14.50;85.50;;;;;;5114142;28;20024;-69
2022/06/28 04:54:59;;;;;;;5.88;2.80;;;14.60;86.40;;;;;;5108911;28;20045;-69
2022/06/28 04:57:26;;;;;;;5.32;2.70;;;14.70;86.30;;;;;;5122787;28;20023;-68
2022/06/28 04:59:52;;;;;;;5.40;2.92;;;14.80;87.40;;;;;;5114361;28;20024;-68
2022/06/28 05:02:17;;;;;;;3.05;1.83;;;14.90;88.40;;;;;;5109266;28;20316;-68
2022/06/28 05:04:43;;;;;;;3.53;1.90;;;14.90;88.50;;;;;;5114260;28;20133;-69
2022/06/28 05:07:08;;;;;;;4.88;2.60;;;15.10;88.70;;;;;;5117430;28;20027;-68
2022/06/28 05:09:34;;;;;;;4.25;1.67;;;15.30;89.20;;;;;;5125547;28;20030;-69
2022/06/28 05:12:00;;;;;;;3.47;1.90;;;15.40;91.20;;;;;;5114549;28;20035;-68
2022/06/28 05:14:26;;;;;;;5.03;2.00;;;15.50;92.50;;;;;;5114958;28;20039;-69
2022/06/28 05:16:52;;;;;;;4.75;2.05;;;15.50;93.30;;;;;;5113541;28;20027;-68
2022/06/28 05:19:18;;;;;;;3.70;2.28;;;15.70;94.20;;;;;;5131469;27;20031;-69
2022/06/28 05:21:47;;;;;;;3.38;1.98;;;15.90;95.30;;;;;;5117986;27;20023;-69
2022/06/28 05:24:16;;;;;;;3.60;1.85;;;16.00;97.10;;;;;;5103052;28;20027;-68
2022/06/28 05:26:42;;;;;;;6.13;2.00;;;16.20;96.70;;;;;;5118795;28;20039;-68
2022/06/28 05:29:08;;;;;;;5.40;1.88;;;16.40;96.80;;;;;;5118400;27;20043;-68
2022/06/28 05:31:35;;;;;;;3.72;1.75;;;16.70;97.10;;;;;;5124275;27;20328;-67
2022/06/28 05:34:01;;;;;;;3.65;1.80;;;17.00;98.00;;;;;;5120880;27;20414;-69
2022/06/28 05:36:27;;;;;;;3.28;1.73;;;17.20;98.00;;;;;;5105338;28;20038;-68
2022/06/28 05:38:56;;;;;;;3.30;1.70;;;17.50;98.00;;;;;;5132995;27;20027;-69
2022/06/28 05:41:21;;;;;;;3.97;2.30;;;17.80;98.00;;;;;;5133324;27;20086;-68
2022/06/28 05:43:47;;;;;;;4.03;2.22;;;18.10;98.00;;;;;;5128073;27;20054;-69
2022/06/28 05:46:13;;;;;;;4.88;2.42;;;18.10;98.00;;;;;;5127901;27;20034;-68
2022/06/28 05:48:38;;;;;;;5.68;2.30;;;18.10;98.00;;;;;;5123100;27;20106;-68
2022/06/28 05:51:04;;;;;;;5.60;2.63;;;17.80;98.00;;;;;;5127952;27;20031;-68
2022/06/28 05:53:30;;;;;;;5.40;2.78;;;17.50;98.00;;;;;;5125487;27;20156;-69
2022/06/28 05:55:56;;;;;;;4.97;2.72;;;17.20;98.00;;;;;;5126614;27;20367;-68
2022/06/28 05:58:21;;;;;;;4.75;2.55;;;17.00;98.00;;;;;;5127125;27;20020;-68
2022/06/28 06:00:49;;;;;;;5.10;2.40;;;17.00;98.00;;;;;;5117839;27;20047;-67
2022/06/28 06:03:15;;;;;;;3.30;2.00;;;17.20;98.00;;;;;;5115574;27;20084;-68
2022/06/28 06:05:41;;;;;;;5.45;2.03;;;17.40;98.00;;;;;;5115059;27;20039;-68
2022/06/28 06:08:07;;;;;;;3.42;2.20;;;17.70;98.00;;;;;;5116515;27;20024;-68
2022/06/28 06:10:32;;;;;;;4.43;2.15;;;17.80;98.00;;;;;;5122250;27;20393;-68
2022/06/28 06:12:58;;;;;;;3.83;2.40;;;18.00;98.00;;;;;;5126895;27;20019;-68
2022/06/28 06:15:24;;;;;;;4.90;2.42;;;18.20;98.00;;;;;;5125771;27;20412;-68
2022/06/28 06:17:49;;;;;;;5.20;2.70;;;18.30;98.00;;;;;;5135602;27;20039;-68
2022/06/28 06:20:15;;;;;;;4.05;2.40;;;18.50;98.00;;;;;;5116773;28;20020;-69
2022/06/28 06:22:40;;;;;;;5.20;2.60;;;18.50;98.00;;;;;;5118975;27;20068;-68
2022/06/28 06:25:07;;;;;;;4.65;2.90;;;18.50;98.00;;;;;;5125974;27;20035;-69
2022/06/28 06:27:32;;;;;;;6.50;3.13;;;18.60;98.00;;;;;;5120771;27;20039;-68
2022/06/28 06:29:58;;;;;;;4.18;2.50;;;18.60;98.00;;;;;;5118846;28;20306;-69
2022/06/28 06:32:24;;;;;;;4.85;2.67;;;18.60;98.00;;;;;;5136130;27;20129;-69
2022/06/28 06:34:49;;;;;;;5.75;4.05;;;18.40;98.00;;;;;;5122324;27;20028;-69
2022/06/28 06:37:15;;;;;;;7.85;4.28;;;18.10;98.00;;;;;;5118678;28;20015;-69
2022/06/28 06:39:41;;;;;;;6.90;4.30;;;17.50;98.00;;;;;;5118554;28;20027;-68
2022/06/28 06:42:07;;;;;;;6.07;4.50;;;17.10;98.00;;;;;;5126740;27;20103;-68
2022/06/28 06:44:32;;;;;;;7.60;5.10;;;16.60;98.00;;;;;;5118387;28;20074;-68
2022/06/28 06:46:58;;;;;;;9.13;5.57;;;16.20;97.40;;;;;;5118386;28;20323;-69
2022/06/28 06:49:25;;;;;;;10.40;7.10;;;15.90;96.70;;;;;;5114087;28;20027;-68
2022/06/28 06:51:50;;;;;;;9.07;6.80;;;15.60;95.60;;;;;;5130957;27;20019;-68
2022/06/28 06:54:16;;;;;;;7.65;5.85;;;15.50;95.70;;;;;;5116601;28;20031;-69
2022/06/28 06:56:42;;;;;;;13.25;7.80;;;15.40;94.50;;;;;;5121512;27;20206;-69
2022/06/28 06:59:08;;;;;;;8.98;6.85;;;15.40;94.30;;;;;;5138814;27;20403;-69
2022/06/28 07:01:34;;;;;;;8.25;6.97;;;15.40;94.40;;;;;;5138770;27;20026;-69
2022/06/28 07:04:01;;;;;;;9.57;8.18;;;15.40;94.70;;;;;;5136417;27;20434;-69
2022/06/28 07:06:27;;;;;;;11.48;10.20;;;15.40;94.00;;;;;;5122494;27;20106;-68
2022/06/28 07:08:52;;;;;;;15.95;12.45;;;15.30;93.40;;;;;;5117993;28;20070;-69
2022/06/28 07:11:18;;;;;;;13.75;12.38;;;15.30;92.30;;;;;;5118067;28;20059;-69
2022/06/28 07:13:44;;;;;;;12.82;11.43;;;15.30;91.70;;;;;;5117876;28;20051;-69
2022/06/28 07:16:09;;;;;;;14.00;11.18;;;15.40;91.30;;;;;;5132433;27;20030;-69
2022/06/28 07:18:35;;;;;;;12.25;10.60;;;15.50;91.60;;;;;;5137322;27;20015;-69
2022/06/28 07:21:01;;;;;;;11.73;8.80;;;15.70;92.80;;;;;;5123780;27;20027;-69
2022/06/28 07:23:27;;;;;;;10.40;8.35;;;15.90;92.30;;;;;;5117763;28;20050;-69
2022/06/28 07:25:52;;;;;;;8.43;6.68;;;16.40;93.80;;;;;;5117687;28;20055;-69
2022/06/28 07:28:18;;;;;;;8.50;6.85;;;16.80;97.70;;;;;;5117764;28;20104;-69
2022/06/28 07:30:46;;;;;;;8.43;5.70;;;17.20;98.00;;;;;;5117605;28;20429;-69
2022/06/28 07:33:12;;;;;;;5.82;4.28;;;17.70;98.00;;;;;;5115764;28;20023;-69
2022/06/28 07:35:37;;;;;;;5.70;3.55;;;18.50;98.00;;;;;;5127305;27;20423;-69
2022/06/28 07:38:03;;;;;;;5.40;2.95;;;19.60;98.00;;;;;;5138094;27;20026;-69
2022/06/28 07:40:29;;;;;;;7.38;4.65;;;21.20;93.00;;;;;;5123301;27;20028;-69
2022/06/28 07:42:57;;;;;;;6.03;4.07;;;22.30;90.70;;;;;;5117297;28;20051;-69
2022/06/28 07:45:23;;;;;;;8.27;3.50;;;23.00;88.20;;;;;;5117336;28;20415;-69
2022/06/28 07:47:49;;;;;;;5.55;2.72;;;23.30;86.90;;;;;;5116095;28;20076;-69
2022/06/28 07:53:02;;;;;;;6.90;3.70;;;25.20;81.50;;;;;;5117234;28;20045;-68
2022/06/28 07:55:29;;;;;;;6.00;3.72;;;24.70;82.00;;;;;;5116243;28;20050;-69
2022/06/28 07:57:55;;;;;;;6.93;3.83;;;24.30;81.70;;;;;;5130981;27;20027;-68
2022/06/28 08:00:21;;;;;;;6.40;3.67;;;23.60;84.20;;;;;;5137721;27;20067;-68
2022/06/28 08:02:47;;;;;;;6.55;3.30;;;23.20;85.00;;;;;;5136456;27;20039;-68
2022/06/28 08:05:14;;;;;;;10.93;4.40;;;22.70;86.50;;;;;;5132739;27;20027;-68
2022/06/28 08:07:43;;;;;;;8.55;4.10;;;22.80;87.00;;;;;;5116941;27;20324;-68
2022/06/28 08:10:12;;;;;;;5.55;3.30;;;22.30;87.20;;;;;;5115549;28;20028;-68
2022/06/28 08:12:38;;;;;;;7.35;3.88;;;22.00;88.70;;;;;;5116993;28;20035;-68
2022/06/28 08:15:05;;;;;;;5.72;3.28;;;22.30;86.60;;;;;;5116983;28;20028;-68
2022/06/28 08:17:31;;;;;;;6.68;3.63;;;21.80;86.00;;;;;;5115489;28;20396;-68
2022/06/28 08:19:57;;;;;;;6.60;3.05;;;21.60;87.20;;;;;;5116931;28;20028;-68
2022/06/28 08:22:22;;;;;;;6.53;2.95;;;21.50;89.20;;;;;;5116748;28;20065;-68
2022/06/28 08:24:48;;;;;;;5.82;2.70;;;21.70;88.70;;;;;;5115907;28;20068;-68
2022/06/28 08:27:14;;;;;;;6.50;3.67;;;21.90;86.80;;;;;;5119843;28;20428;-70
2022/06/28 08:29:42;;;;;;;7.10;3.58;;;22.00;88.60;;;;;;5137159;27;20308;-69
2022/06/28 08:32:09;;;;;;;8.63;3.97;;;22.10;88.70;;;;;;5137099;27;20038;-69
2022/06/28 08:34:35;;;;;;;7.13;4.70;;;22.10;87.90;;;;;;5136020;27;20412;-69
2022/06/28 08:37:05;;;;;;;6.25;3.17;;;22.60;87.70;;;;;;5118611;28;20416;-69
2022/06/28 08:39:31;;;;;;;5.90;3.60;;;24.60;84.00;;;;;;5114097;28;20085;-69
2022/06/28 08:42:02;;;;;;;5.30;3.08;;;25.90;79.10;;;;;;5113754;28;20020;-69
2022/06/28 08:44:31;;;;;;;8.13;4.43;;;26.70;74.30;;;;;;5116262;28;20063;-69
2022/06/28 08:46:58;;;;;;;6.97;4.40;;;26.10;77.00;;;;;;5116463;28;20036;-69
2022/06/28 08:49:41;;;;;;;6.05;4.43;;;25.50;78.20;;;;;;5114663;28;20401;-69
2022/06/28 08:52:08;;;;;;;7.55;3.75;;;24.60;78.90;;;;;;5126692;28;20023;-68
2022/06/28 08:54:35;;;;;;;8.25;4.95;;;24.40;79.10;;;;;;5126778;28;20028;-68
2022/06/28 08:57:05;;;;;;;8.02;5.45;;;23.30;83.80;;;;;;5116258;28;20035;-68
2022/06/28 08:59:31;;;;;;;7.25;4.78;;;22.60;85.40;;;;;;5113157;28;20427;-68
2022/06/28 09:01:56;;;;;;;9.50;4.47;;;21.80;88.40;;;;;;5116208;28;20297;-68
2022/06/28 09:04:22;;;;;;;6.22;4.43;;;21.60;88.30;;;;;;5114061;28;20039;-68
2022/06/28 09:06:48;;;;;;;8.50;5.45;;;21.70;88.60;;;;;;5116328;28;20043;-68
2022/06/28 09:09:14;;;;;;;8.45;5.20;;;21.80;87.70;;;;;;5116007;28;20022;-68
2022/06/28 09:11:44;;;;;;;7.78;4.32;;;21.60;89.10;;;;;;5116113;28;20028;-68
2022/06/28 09:14:29;;;;;;;6.78;3.78;;;21.90;87.90;;;;;;5116093;28;20031;-68
2022/06/28 09:16:57;;;;;;;10.98;5.03;;;22.20;86.80;;;;;;5116143;28;20024;-68
2022/06/28 09:19:33;;;;;;;6.07;4.97;;;22.40;87.90;;;;;;5114878;28;20416;-68
2022/06/28 09:21:59;;;;;;;8.15;5.20;;;22.60;85.40;;;;;;5116114;28;20024;-68
2022/06/28 09:24:25;;;;;;;7.40;5.03;;;22.20;85.90;;;;;;5115313;28;20020;-68
2022/06/28 09:27:00;;;;;;;8.50;4.78;;;21.80;87.40;;;;;;5098948;28;20028;-68
2022/06/28 09:29:28;;;;;;;6.32;4.45;;;21.40;89.00;;;;;;5118068;28;20031;-68
2022/06/28 09:31:56;;;;;;;6.35;4.30;;;21.40;89.00;;;;;;5113092;28;20043;-68
2022/06/28 09:34:31;;;;;;;6.70;4.30;;;21.80;88.50;;;;;;5112463;28;20028;-68
2022/06/28 09:36:57;;;;;;;6.47;4.13;;;22.00;88.00;;;;;;5111867;28;20417;-68
2022/06/28 09:39:28;;;;;;;6.40;4.00;;;21.90;88.20;;;;;;5113915;28;20034;-67
2022/06/28 09:41:57;;;;;;;5.53;3.80;;;22.20;86.30;;;;;;5113453;28;20019;-68
2022/06/28 09:44:32;;;;;;;5.38;4.18;;;22.40;85.40;;;;;;5114041;28;20048;-68
2022/06/28 09:46:59;;;;;;;6.28;3.40;;;22.20;85.80;;;;;;5105215;28;20062;-68
2022/06/28 09:49:34;;;;;;;7.18;4.05;;;22.20;86.10;;;;;;5132588;28;20063;-68
2022/06/28 09:52:03;;;;;;;7.18;3.90;;;22.30;87.50;;;;;;5123320;28;20034;-68
2022/06/28 09:54:33;;;;;;;5.18;3.63;;;22.80;85.20;;;;;;5119128;28;20027;-68
2022/06/28 09:57:00;;;;;;;5.03;4.00;;;23.30;83.20;;;;;;5115098;28;20051;-67
2022/06/28 09:59:28;;;;;;;6.43;4.28;;;23.40;82.70;;;;;;5119184;27;20362;-68
2022/06/28 10:01:55;;;;;;;5.78;2.97;;;23.10;84.00;;;;;;5115848;28;20439;-68
2022/06/28 10:04:23;;;;;;;5.65;3.45;;;23.30;84.40;;;;;;5116502;28;20028;-68
2022/06/28 10:06:50;;;;;;;4.90;3.40;;;23.80;82.30;;;;;;5115501;28;20061;-67
2022/06/28 10:09:19;;;;;;;7.45;3.10;;;24.30;80.00;;;;;;5117937;28;20443;-68
2022/06/28 10:17:36;;;;;;;5.47;3.63;;;24.40;79.00;;;;;;5117379;28;20088;-68
2022/06/28 10:20:08;;;;;;;7.30;3.60;;;23.90;82.00;;;;;;5117409;28;20463;-68
2022/06/28 10:22:35;;;;;;;7.68;4.07;;;24.20;82.40;;;;;;5109247;27;20025;-68
2022/06/28 10:25:02;;;;;;;123.55;7.80;;;24.40;80.10;;;;;;5112341;28;20053;-67
2022/06/28 10:27:42;;;;;;;8.57;4.38;;;24.40;79.70;;;;;;5116746;28;20064;-68
2022/06/28 10:30:18;;;;;;;8.95;3.80;;;23.60;81.00;;;;;;5116147;28;20328;-67
2022/06/28 10:32:52;;;;;;;6.10;3.80;;;23.60;80.80;;;;;;5116162;28;20031;-68
2022/06/28 10:35:36;;;;;;;5.22;3.88;;;23.50;81.20;;;;;;5114566;28;20036;-68
2022/06/28 10:38:07;;;;;;;5.40;3.60;;;23.10;83.20;;;;;;5115194;28;20110;-67
2022/06/28 10:40:38;;;;;;;5.03;3.25;;;23.40;82.30;;;;;;5114714;28;20270;-68
2022/06/28 10:43:04;;;;;;;5.70;3.10;;;23.60;81.90;;;;;;5115908;28;20047;-68
2022/06/28 10:46:05;;;;;;;5.60;3.15;;;23.70;81.60;;;;;;5117413;28;20416;-68
2022/06/28 10:48:49;;;;;;;4.93;2.85;;;23.60;81.90;;;;;;5134987;27;20054;-68
2022/06/28 10:51:16;;;;;;;5.05;3.30;;;23.30;83.10;;;;;;5121668;27;20023;-68
2022/06/28 10:53:57;;;;;;;5.57;3.10;;;23.50;82.20;;;;;;5114342;28;20028;-68
2022/06/28 10:56:24;;;;;;;5.00;3.15;;;23.80;82.10;;;;;;5118504;28;20023;-68
2022/06/28 10:58:53;;;;;;;19.73;4.32;;;24.00;79.70;;;;;;5117145;27;20019;-68
2022/06/28 11:01:39;;;;;;;6.45;3.65;;;24.20;84.00;;;;;;5122981;27;20344;-67
2022/06/28 11:04:19;;;;;;;4.35;2.80;;;24.40;79.30;;;;;;5115220;27;20037;-68
2022/06/28 11:07:00;;;;;;;4.75;3.10;;;24.30;79.80;;;;;;5118104;28;20032;-67
2022/06/28 11:09:44;;;;;;;5.57;3.00;;;24.10;80.80;;;;;;5116972;28;20059;-67
2022/06/28 11:12:28;;;;;;;;;;;24.00;81.50;;;;;;5115438;28;20085;-67
2022/06/28 11:15:01;;;;;;;6.35;3.10;;;23.50;81.00;;;;;;5117181;28;20373;-67
2022/06/28 11:17:36;;;;;;;5.32;3.10;;;23.20;82.60;;;;;;5117116;27;20020;-67
2022/06/28 11:20:08;;;;;;;6.35;2.78;;;23.40;83.00;;;;;;5117818;28;20055;-67
2022/06/28 11:22:44;;;;;;;6.25;2.55;;;23.50;83.10;;;;;;5116958;28;20458;-68
2022/06/28 11:25:21;;;;;;;3.80;2.47;;;23.80;81.50;;;;;;5132647;27;20042;-69
2022/06/28 11:27:47;;;;;;;5.38;2.67;;;24.30;81.90;;;;;;5126813;27;20053;-68
2022/06/28 11:30:14;;;;;;;332.88;16.52;;;24.10;81.00;;;;;;5116730;28;20055;-68
2022/06/28 11:32:45;;;;;;;5.20;3.10;;;24.40;81.30;;;;;;5115318;28;20016;-68
2022/06/28 11:35:12;;;;;;;5.47;3.65;;;24.50;78.70;;;;;;5115846;27;20354;-68
2022/06/28 11:37:58;;;;;;;5.00;2.80;;;23.90;79.80;;;;;;5120679;27;20103;-68
2022/06/28 11:40:45;;;;;;;4.18;2.60;;;23.60;82.20;;;;;;5116606;28;20028;-68
2022/06/28 11:43:16;;;;;;;6.03;2.70;;;24.10;82.10;;;;;;5115002;27;20084;-67
2022/06/28 11:45:44;;;;;;;5.00;2.45;;;24.70;79.30;;;;;;5129760;27;20046;-69
2022/06/28 11:48:16;;;;;;;5.05;2.20;;;24.70;78.10;;;;;;5113891;27;20332;-68
2022/06/28 11:50:47;;;;;;;6.88;2.50;;;24.50;79.90;;;;;;5112221;27;20069;-68
2022/06/28 11:53:15;;;;;;;4.22;2.28;;;24.20;80.30;;;;;;5115611;28;20090;-68
2022/06/28 11:55:52;;;;;;;5.53;2.80;;;23.50;82.10;;;;;;5118309;27;20487;-68
2022/06/28 11:58:26;;;;;;;4.32;2.55;;;23.70;81.20;;;;;;5115874;28;20181;-68
2022/06/28 12:01:11;;;;;;;62.92;5.47;;;23.90;79.80;;;;;;5107085;27;20023;-68
2022/06/28 12:03:43;;;;;;;5.18;2.45;;;24.00;81.50;;;;;;5127919;27;20035;-68
2022/06/28 12:06:12;;;;;;;14.25;3.20;;;24.30;81.10;;;;;;5116958;27;20030;-68
2022/06/28 12:09:01;;;;;;;5.75;2.20;;;24.70;79.70;;;;;;5119774;27;20027;-68
2022/06/28 12:11:43;;;;;;;5.93;2.75;;;24.60;78.00;;;;;;5112718;27;20054;-68
2022/06/28 12:14:19;;;;;;;4.75;2.10;;;24.30;81.00;;;;;;5113121;28;20032;-68
2022/06/28 12:16:56;;;;;;;4.22;2.20;;;24.10;80.70;;;;;;5116126;27;20031;-68
2022/06/28 12:19:33;;;;;;;5.60;2.10;;;24.10;82.90;;;;;;5114773;28;20026;-68
2022/06/28 12:22:06;;;;;;;3.25;1.80;;;24.50;80.40;;;;;;5128465;27;20027;-69
2022/06/28 12:24:40;;;;;;;4.88;2.03;;;24.80;79.00;;;;;;5134159;27;20046;-68
2022/06/28 12:27:07;;;;;;;4.40;2.05;;;24.80;77.90;;;;;;5116673;28;20074;-68
2022/06/28 12:29:33;;;;;;;3.88;2.08;;;24.60;78.70;;;;;;5115509;28;20281;-68
2022/06/28 12:31:58;;;;;;;4.15;1.80;;;24.80;79.30;;;;;;5113629;28;20119;-68
2022/06/28 12:34:25;;;;;;;9.52;2.00;;;25.00;79.30;;;;;;5127191;27;20031;-68
2022/06/28 12:36:50;;;;;;;4.47;2.22;;;25.10;79.00;;;;;;5118768;27;20030;-68
2022/06/28 12:39:16;;;;;;;4.28;2.13;;;24.90;80.00;;;;;;5116426;28;20020;-68
2022/06/28 12:41:44;;;;;;;4.88;2.00;;;24.90;78.10;;;;;;5115849;28;20095;-68
2022/06/28 12:44:10;;;;;;;4.80;2.20;;;24.20;80.00;;;;;;5114325;28;20055;-68
2022/06/28 12:46:36;;;;;;;3.53;1.90;;;24.00;80.20;;;;;;5116487;28;20028;-68
2022/06/28 12:49:01;;;;;;;4.00;1.77;;;24.00;80.90;;;;;;5113474;28;20024;-68
2022/06/28 12:51:27;;;;;;;5.85;2.08;;;24.20;81.00;;;;;;5105817;28;20424;-68
2022/06/28 12:53:53;;;;;;;3.42;1.67;;;24.50;79.50;;;;;;5113958;28;20032;-68
2022/06/28 12:56:19;;;;;;;4.95;1.98;;;24.90;80.00;;;;;;5124983;28;20034;-68
2022/06/28 12:58:46;;;;;;;4.40;2.30;;;25.10;78.50;;;;;;5108284;28;20435;-68
2022/06/28 13:01:12;;;;;;;6.82;2.30;;;24.80;77.50;;;;;;5110486;28;20782;-68
2022/06/28 13:03:38;;;;;;;4.68;2.20;;;24.10;79.10;;;;;;5109771;28;20599;-69
2022/06/28 13:06:05;;;;;;;6.07;2.38;;;23.20;82.00;;;;;;5121807;28;20027;-68